Time;durP1;ratioP1;P1;durP2;ratioP2;P2;SDS_P1;SDS_P2;PMS_P1;PMS_P2;Temp;Humidity;BMP_temperature;BMP_pressure;BME280_temperature;BME280_humidity;BME280_pressure;Samples;Min_cycle;Max_cycle;Signal;HPM_P1;HPM_P2
2024/02/24 05:06:49;;;;;;;0.38;0.38;;;5.30;99.90;;;;;;5348364;23;20325;-68
2024/02/24 05:09:16;;;;;;;0.30;0.30;;;5.40;99.90;;;;;;4955365;29;20288;-68
2024/02/24 05:11:42;;;;;;;0.30;0.30;;;5.40;99.90;;;;;;4955151;29;20169;-68
2024/02/24 05:14:07;;;;;;;0.40;0.40;;;5.40;99.90;;;;;;4955428;29;20695;-68
2024/02/24 05:16:35;;;;;;;0.30;0.30;;;5.40;99.90;;;;;;4954738;28;20201;-68
2024/02/24 05:19:00;;;;;;;0.40;0.40;;;5.40;99.90;;;;;;4954538;29;20171;-68
2024/02/24 05:21:26;;;;;;;0.30;0.30;;;5.40;99.90;;;;;;4955184;29;20177;-68
2024/02/24 05:23:51;;;;;;;0.33;0.33;;;5.50;99.90;;;;;;4955613;29;20246;-68
2024/02/24 05:26:27;;;;;;;0.30;0.30;;;5.50;99.90;;;;;;4954449;28;20231;-68
2024/02/24 05:28:54;;;;;;;0.30;0.30;;;5.50;99.90;;;;;;4955073;29;20211;-67
2024/02/24 05:31:19;;;;;;;0.40;0.40;;;5.50;99.90;;;;;;4955041;29;20165;-67
2024/02/24 05:33:47;;;;;;;0.40;0.40;;;5.40;99.90;;;;;;4955139;29;20614;-67
2024/02/24 05:36:13;;;;;;;0.38;0.38;;;5.40;99.90;;;;;;4953285;28;20464;-69
2024/02/24 05:38:39;;;;;;;0.30;0.30;;;5.40;99.90;;;;;;4953379;29;20172;-69
2024/02/24 05:41:05;;;;;;;0.30;0.30;;;5.50;99.90;;;;;;4953902;28;20192;-68
2024/02/24 05:43:33;;;;;;;0.50;0.50;;;5.50;99.90;;;;;;4957408;29;20740;-68
2024/02/24 05:46:09;;;;;;;0.40;0.40;;;5.50;99.90;;;;;;4957597;28;20209;-68
2024/02/24 05:48:36;;;;;;;0.30;0.30;;;5.60;99.90;;;;;;4957853;29;20200;-69
2024/02/24 05:51:11;;;;;;;0.38;0.38;;;5.60;99.90;;;;;;4957818;29;20172;-69
2024/02/24 05:53:38;;;;;;;0.30;0.30;;;5.60;99.90;;;;;;4940997;29;20538;-68
2024/02/24 05:56:04;;;;;;;0.30;0.30;;;5.50;99.90;;;;;;4957967;28;20188;-68
2024/02/24 05:58:30;;;;;;;0.40;0.40;;;5.50;99.90;;;;;;4958492;29;20263;-68
2024/02/24 06:00:55;;;;;;;0.40;0.40;;;5.50;99.90;;;;;;4958483;29;20188;-69
2024/02/24 06:03:22;;;;;;;0.30;0.30;;;5.50;99.90;;;;;;4958111;29;20405;-68
2024/02/24 06:05:48;;;;;;;0.30;0.30;;;5.60;99.90;;;;;;4957592;28;20283;-68
2024/02/24 06:08:14;;;;;;;0.30;0.30;;;5.50;99.90;;;;;;4958590;29;20291;-68
2024/02/24 06:10:39;;;;;;;0.32;0.32;;;5.50;99.90;;;;;;4941423;29;20265;-68
2024/02/24 06:13:05;;;;;;;0.30;0.30;;;5.50;99.90;;;;;;4958078;29;20211;-68
2024/02/24 06:15:31;;;;;;;0.40;0.40;;;5.60;99.90;;;;;;4957748;28;20196;-68
2024/02/24 06:17:57;;;;;;;0.40;0.40;;;5.60;99.90;;;;;;4958038;29;20267;-67
2024/02/24 06:20:23;;;;;;;0.30;0.30;;;5.70;99.90;;;;;;4957891;29;20180;-66
2024/02/24 06:22:49;;;;;;;0.30;0.30;;;5.70;99.90;;;;;;4957779;29;20502;-69
2024/02/24 06:25:14;;;;;;;0.30;0.30;;;5.60;99.90;;;;;;4957522;28;20462;-68
2024/02/24 06:27:40;;;;;;;0.40;0.40;;;5.50;99.90;;;;;;4957824;29;20180;-67
2024/02/24 06:30:06;;;;;;;0.30;0.30;;;5.40;99.90;;;;;;4957802;29;20661;-67
2024/02/24 06:32:31;;;;;;;0.30;0.30;;;5.30;99.90;;;;;;4958005;29;20180;-68
2024/02/24 06:34:57;;;;;;;0.30;0.30;;;5.30;99.90;;;;;;4957353;29;20169;-67
2024/02/24 06:37:23;;;;;;;0.33;0.33;;;5.30;99.90;;;;;;4957052;28;20203;-64
2024/02/24 06:39:48;;;;;;;0.30;0.30;;;5.30;99.90;;;;;;4952376;28;20180;-69
2024/02/24 06:42:14;;;;;;;0.40;0.40;;;5.30;99.90;;;;;;4951270;29;20219;-68
2024/02/24 06:44:41;;;;;;;0.37;0.37;;;5.30;99.90;;;;;;4937843;29;20174;-68
2024/02/24 06:47:08;;;;;;;0.30;0.30;;;5.30;99.90;;;;;;4953991;29;20204;-69
2024/02/24 06:49:33;;;;;;;0.82;0.82;;;5.40;99.90;;;;;;4956195;29;20207;-67
2024/02/24 06:51:59;;;;;;;0.40;0.40;;;5.30;99.90;;;;;;4958161;28;20660;-67
2024/02/24 06:54:27;;;;;;;0.40;0.40;;;5.40;99.90;;;;;;4959469;28;20192;-65
2024/02/24 06:56:53;;;;;;;0.30;0.30;;;5.50;99.90;;;;;;4950116;29;20200;-68
2024/02/24 06:59:18;;;;;;;0.30;0.30;;;5.50;99.90;;;;;;4956442;29;20215;-66
2024/02/24 07:01:44;;;;;;;0.90;0.80;;;5.50;99.90;;;;;;4955882;29;20188;-67
2024/02/24 07:04:09;;;;;;;0.40;0.40;;;5.50;99.90;;;;;;4957247;29;20186;-67
2024/02/24 07:06:35;;;;;;;0.40;0.40;;;5.60;99.90;;;;;;4956169;29;20211;-68
2024/02/24 07:09:01;;;;;;;0.40;0.40;;;5.60;99.90;;;;;;4957004;29;20610;-66
2024/02/24 07:11:27;;;;;;;0.40;0.40;;;5.70;99.90;;;;;;4955059;29;20257;-65
2024/02/24 07:13:52;;;;;;;0.40;0.40;;;5.70;99.90;;;;;;4957021;29;20205;-63
2024/02/24 07:16:18;;;;;;;0.40;0.40;;;5.80;99.90;;;;;;4955150;29;20206;-65
2024/02/24 07:18:44;;;;;;;0.30;0.30;;;5.70;99.90;;;;;;4956532;29;20195;-67
2024/02/24 07:21:09;;;;;;;0.30;0.30;;;5.70;99.90;;;;;;4956790;29;20180;-62
2024/02/24 07:23:35;;;;;;;0.30;0.30;;;5.70;99.90;;;;;;4956808;29;20295;-63
2024/02/24 07:26:02;;;;;;;0.50;0.50;;;5.70;99.90;;;;;;4955997;29;20199;-65
2024/02/24 07:28:28;;;;;;;0.40;0.40;;;5.70;99.90;;;;;;4956493;29;20201;-66
2024/02/24 07:30:54;;;;;;;0.30;0.30;;;5.70;99.90;;;;;;4955640;29;20172;-68
2024/02/24 07:33:20;;;;;;;0.40;0.40;;;5.70;99.90;;;;;;4950059;29;20666;-64
2024/02/24 07:35:46;;;;;;;0.30;0.30;;;5.70;99.90;;;;;;4937007;29;20416;-67
2024/02/24 07:38:11;;;;;;;0.30;0.30;;;5.70;99.90;;;;;;4937445;29;20310;-66
2024/02/24 07:40:37;;;;;;;0.40;0.40;;;5.70;99.90;;;;;;4937698;29;20240;-65
2024/02/24 07:43:03;;;;;;;0.30;0.30;;;5.70;99.90;;;;;;4956257;29;20267;-65
2024/02/24 07:45:28;;;;;;;0.30;0.30;;;5.80;99.90;;;;;;4956054;29;20241;-64
2024/02/24 07:47:55;;;;;;;0.30;0.30;;;5.80;99.90;;;;;;4955674;29;20180;-65
2024/02/24 07:50:21;;;;;;;0.30;0.30;;;5.80;99.90;;;;;;4956035;29;20190;-63
2024/02/24 07:52:47;;;;;;;0.40;0.40;;;5.90;99.90;;;;;;4956086;29;20210;-66
2024/02/24 07:55:13;;;;;;;0.30;0.30;;;6.00;99.90;;;;;;4955800;28;20613;-65
2024/02/24 07:57:39;;;;;;;0.40;0.40;;;6.10;99.90;;;;;;4953503;29;20254;-66
2024/02/24 08:00:05;;;;;;;0.60;0.60;;;6.20;99.90;;;;;;4928113;29;20646;-64
2024/02/24 08:02:32;;;;;;;0.30;0.30;;;6.30;99.90;;;;;;4955922;29;20224;-64
2024/02/24 08:04:59;;;;;;;0.40;0.40;;;6.40;99.90;;;;;;4947306;28;20214;-63
2024/02/24 08:07:25;;;;;;;0.30;0.30;;;6.40;99.90;;;;;;4972931;28;20204;-65
2024/02/24 08:09:50;;;;;;;0.30;0.30;;;6.50;99.90;;;;;;4938181;29;20513;-67
2024/02/24 08:12:16;;;;;;;0.30;0.30;;;6.50;99.90;;;;;;4942029;29;20180;-63
2024/02/24 08:14:41;;;;;;;0.30;0.30;;;6.60;99.90;;;;;;4936284;29;20170;-64
2024/02/24 08:17:07;;;;;;;0.30;0.30;;;6.70;99.90;;;;;;4951325;29;20196;-70
2024/02/24 08:19:34;;;;;;;0.30;0.30;;;6.70;99.90;;;;;;4950422;28;20219;-63
2024/02/24 08:22:02;;;;;;;0.30;0.30;;;6.80;99.90;;;;;;4947396;29;20259;-66
2024/02/24 08:24:28;;;;;;;0.30;0.30;;;6.80;99.90;;;;;;4954130;29;20176;-61
2024/02/24 08:26:54;;;;;;;0.30;0.30;;;6.90;99.90;;;;;;4945272;29;20201;-62
2024/02/24 08:29:19;;;;;;;0.30;0.30;;;6.90;99.90;;;;;;4936406;29;20283;-69
2024/02/24 08:31:45;;;;;;;0.30;0.30;;;7.00;99.90;;;;;;4949273;29;20200;-67
2024/02/24 08:34:11;;;;;;;0.30;0.30;;;7.10;99.90;;;;;;4954883;29;20228;-66
2024/02/24 08:36:37;;;;;;;0.50;0.50;;;7.20;99.90;;;;;;4954888;28;20291;-68
2024/02/24 08:39:03;;;;;;;0.30;0.30;;;7.40;99.90;;;;;;4955393;29;20208;-64
2024/02/24 08:41:31;;;;;;;0.30;0.30;;;7.60;99.90;;;;;;4950453;29;20197;-68
2024/02/24 08:43:58;;;;;;;0.32;0.32;;;8.00;99.90;;;;;;4937053;29;20432;-69
2024/02/24 08:46:23;;;;;;;0.30;0.30;;;9.00;99.90;;;;;;4944036;29;20200;-65
2024/02/24 08:48:49;;;;;;;0.30;0.30;;;10.30;99.90;;;;;;4919007;29;20962;-66
2024/02/24 08:51:15;;;;;;;0.30;0.30;;;11.60;99.90;;;;;;4918886;29;20582;-67
2024/02/24 08:53:42;;;;;;;0.30;0.30;;;12.90;98.20;;;;;;4949733;29;20169;-71
2024/02/24 08:56:07;;;;;;;0.30;0.20;;;14.10;96.20;;;;;;4954270;29;20193;-71
2024/02/24 08:58:33;;;;;;;0.30;0.20;;;15.30;93.40;;;;;;4954911;29;20393;-70
2024/02/24 09:01:01;;;;;;;0.30;0.30;;;15.90;91.50;;;;;;4947761;29;20259;-67
2024/02/24 09:03:29;;;;;;;0.30;0.20;;;16.10;89.70;;;;;;4946269;28;20453;-65
2024/02/24 09:05:55;;;;;;;0.30;0.20;;;16.50;89.00;;;;;;4943121;29;20407;-66
2024/02/24 09:08:20;;;;;;;0.30;0.20;;;17.00;88.20;;;;;;4954771;29;20583;-67
2024/02/24 09:10:47;;;;;;;0.57;0.57;;;17.70;86.20;;;;;;4954598;28;20298;-67
2024/02/24 09:13:13;;;;;;;0.30;0.20;;;18.20;85.00;;;;;;4954160;29;20480;-68
2024/02/24 09:15:38;;;;;;;0.30;0.20;;;18.50;82.40;;;;;;4949084;28;20267;-69
2024/02/24 09:18:07;;;;;;;0.30;0.20;;;18.70;82.00;;;;;;4935121;29;20601;-67
2024/02/24 09:20:32;;;;;;;0.30;0.20;;;18.90;77.80;;;;;;4935452;29;20181;-69
2024/02/24 09:22:58;;;;;;;0.30;0.30;;;19.00;77.70;;;;;;4946648;29;20387;-67
2024/02/24 09:25:24;;;;;;;0.30;0.30;;;18.90;77.60;;;;;;4940822;29;20209;-67
2024/02/24 09:27:49;;;;;;;0.30;0.30;;;19.10;78.60;;;;;;4944388;29;20189;-68
2024/02/24 09:30:15;;;;;;;0.30;0.30;;;19.30;76.50;;;;;;4953754;29;20264;-68
2024/02/24 09:32:40;;;;;;;0.30;0.20;;;19.40;76.00;;;;;;4954208;29;20177;-68
2024/02/24 09:35:07;;;;;;;0.30;0.20;;;19.60;76.60;;;;;;4954077;29;20173;-68
2024/02/24 09:37:34;;;;;;;0.30;0.20;;;19.50;74.90;;;;;;4954601;29;20169;-66
2024/02/24 09:40:07;;;;;;;0.30;0.20;;;19.40;74.80;;;;;;4954361;29;20433;-66
2024/02/24 09:42:33;;;;;;;0.30;0.30;;;18.90;73.30;;;;;;4949048;29;20423;-66
2024/02/24 09:45:03;;;;;;;0.30;0.20;;;17.90;73.90;;;;;;4934731;29;20421;-66
2024/02/24 09:47:29;;;;;;;0.30;0.30;;;16.50;76.80;;;;;;4936858;29;20453;-65
2024/02/24 09:50:00;;;;;;;0.30;0.20;;;15.40;79.70;;;;;;4954125;29;20522;-65
2024/02/24 09:52:26;;;;;;;0.30;0.20;;;14.60;80.50;;;;;;4954540;29;20387;-64
2024/02/24 09:54:51;;;;;;;0.30;0.20;;;13.60;83.30;;;;;;4953742;29;20873;-66
2024/02/24 09:57:20;;;;;;;0.30;0.30;;;13.50;86.30;;;;;;4949613;28;20445;-65
2024/02/24 09:59:48;;;;;;;0.30;0.20;;;13.60;86.60;;;;;;4954251;29;20203;-66
2024/02/24 10:02:14;;;;;;;0.30;0.30;;;13.90;85.90;;;;;;4954477;29;20447;-65
2024/02/24 10:04:40;;;;;;;0.30;0.20;;;14.10;85.30;;;;;;4953914;29;20913;-65
2024/02/24 10:07:06;;;;;;;0.30;0.30;;;14.50;85.10;;;;;;4953897;28;20431;-67
2024/02/24 10:09:35;;;;;;;0.30;0.30;;;15.20;84.50;;;;;;4953284;29;20599;-66
2024/02/24 10:12:01;;;;;;;0.30;0.30;;;15.90;82.70;;;;;;4952438;29;20479;-67
2024/02/24 10:14:32;;;;;;;0.30;0.20;;;16.50;81.50;;;;;;4936484;29;20433;-66
2024/02/24 10:16:59;;;;;;;0.30;0.20;;;16.80;80.20;;;;;;4934809;29;20836;-66
2024/02/24 10:19:30;;;;;;;0.30;0.30;;;16.90;79.40;;;;;;4934917;29;20400;-65
2024/02/24 10:22:00;;;;;;;0.40;0.40;;;17.10;78.80;;;;;;4966009;28;20507;-68
2024/02/24 10:24:26;;;;;;;0.30;0.20;;;17.50;79.10;;;;;;4964562;28;20446;-67
2024/02/24 10:26:52;;;;;;;0.90;0.50;;;18.10;76.10;;;;;;4967274;28;20460;-67
2024/02/24 10:29:20;;;;;;;0.30;0.20;;;18.10;75.70;;;;;;4956269;28;20205;-68
2024/02/24 10:31:49;;;;;;;0.30;0.20;;;18.00;75.50;;;;;;4948164;29;20404;-67
2024/02/24 10:34:16;;;;;;;0.30;0.30;;;18.00;74.80;;;;;;4957303;29;20407;-67
2024/02/24 10:36:43;;;;;;;0.30;0.30;;;17.50;73.70;;;;;;4957246;29;20482;-66
2024/02/24 10:39:09;;;;;;;0.30;0.30;;;16.50;75.10;;;;;;4957644;29;20404;-66
2024/02/24 10:41:35;;;;;;;0.30;0.30;;;15.80;76.50;;;;;;4957261;29;20387;-67
2024/02/24 10:44:02;;;;;;;0.30;0.30;;;15.30;77.30;;;;;;4946983;29;20395;-67
2024/02/24 10:46:28;;;;;;;0.30;0.30;;;14.80;78.00;;;;;;4937761;29;20436;-69
2024/02/24 10:48:56;;;;;;;0.30;0.30;;;14.30;79.10;;;;;;4938192;29;20515;-66
2024/02/24 10:51:23;;;;;;;0.30;0.30;;;13.90;79.70;;;;;;4941789;28;20404;-64
2024/02/24 10:53:55;;;;;;;0.30;0.30;;;13.90;81.60;;;;;;4976381;28;20913;-65
2024/02/24 10:56:22;;;;;;;0.30;0.20;;;14.20;80.40;;;;;;4976232;28;20891;-62
2024/02/24 10:58:47;;;;;;;0.37;0.37;;;14.00;80.20;;;;;;4976452;28;20412;-61
2024/02/24 11:01:14;;;;;;;0.30;0.30;;;13.80;80.50;;;;;;4976070;28;20435;-64
2024/02/24 11:03:39;;;;;;;0.30;0.20;;;13.40;81.40;;;;;;4965011;28;20192;-63
2024/02/24 11:06:06;;;;;;;0.30;0.30;;;12.80;83.30;;;;;;4965048;28;20414;-61
2024/02/24 11:08:44;;;;;;;0.30;0.30;;;12.40;84.20;;;;;;4975960;28;20562;-66
2024/02/24 11:11:11;;;;;;;0.30;0.30;;;12.20;87.20;;;;;;4975959;28;20408;-67
2024/02/24 11:13:48;;;;;;;0.30;0.30;;;12.20;87.70;;;;;;4975841;28;20430;-63
2024/02/24 11:16:15;;;;;;;0.30;0.30;;;12.40;84.80;;;;;;4969339;28;20462;-63
2024/02/24 11:18:47;;;;;;;0.30;0.30;;;12.60;84.40;;;;;;4958488;28;20760;-62
2024/02/24 11:21:16;;;;;;;0.30;0.20;;;12.60;85.00;;;;;;4965662;28;20395;-63
2024/02/24 11:23:44;;;;;;;0.30;0.23;;;12.70;85.50;;;;;;4972573;28;20414;-65
2024/02/24 11:26:12;;;;;;;0.30;0.30;;;13.00;85.80;;;;;;4975327;28;20411;-61
2024/02/24 11:28:44;;;;;;;0.30;0.30;;;13.20;84.70;;;;;;4975471;28;20492;-62
2024/02/24 11:31:16;;;;;;;0.30;0.30;;;13.20;84.70;;;;;;4975743;28;20397;-62
2024/02/24 11:33:42;;;;;;;0.30;0.20;;;13.20;84.30;;;;;;4976262;28;20389;-63
2024/02/24 11:36:10;;;;;;;0.30;0.30;;;13.20;86.00;;;;;;4975243;28;20426;-66
2024/02/24 11:38:36;;;;;;;0.30;0.30;;;13.20;85.30;;;;;;4975141;28;20409;-66
2024/02/24 11:41:05;;;;;;;0.30;0.30;;;13.20;82.40;;;;;;4974972;28;20496;-64
2024/02/24 11:43:31;;;;;;;0.30;0.30;;;13.00;84.00;;;;;;4975592;28;20413;-64
2024/02/24 11:45:57;;;;;;;0.30;0.30;;;12.80;84.00;;;;;;4975183;28;20838;-65
2024/02/24 11:48:23;;;;;;;0.33;0.33;;;12.80;83.40;;;;;;4975666;28;20661;-65
2024/02/24 11:50:51;;;;;;;0.30;0.30;;;12.80;83.40;;;;;;4975617;28;20478;-66
2024/02/24 11:53:19;;;;;;;0.30;0.30;;;12.70;82.00;;;;;;4975637;28;20164;-66
2024/02/24 11:55:46;;;;;;;0.30;0.30;;;12.60;79.90;;;;;;4975013;28;20423;-67
2024/02/24 11:58:13;;;;;;;0.30;0.30;;;12.50;79.90;;;;;;4975603;28;20789;-65
2024/02/24 12:00:39;;;;;;;0.30;0.30;;;12.40;80.00;;;;;;4975392;28;20484;-65
2024/02/24 12:03:10;;;;;;;0.30;0.30;;;12.30;81.20;;;;;;4974980;28;20814;-67
2024/02/24 12:05:36;;;;;;;0.30;0.30;;;12.20;82.00;;;;;;4973150;28;20438;-67
2024/02/24 12:08:07;;;;;;;0.37;0.37;;;12.30;82.80;;;;;;4973131;28;20446;-64
2024/02/24 12:10:36;;;;;;;0.30;0.30;;;12.30;83.50;;;;;;4973614;28;20407;-66
2024/02/24 12:13:10;;;;;;;0.30;0.30;;;12.40;83.30;;;;;;4973564;28;20404;-66
2024/02/24 12:15:38;;;;;;;0.30;0.30;;;12.60;83.50;;;;;;4955688;28;21023;-67
2024/02/24 12:18:08;;;;;;;0.30;0.30;;;12.60;83.10;;;;;;4973992;28;20405;-65
2024/02/24 12:20:37;;;;;;;0.30;0.30;;;12.70;82.50;;;;;;4975573;28;20386;-66
2024/02/24 12:23:04;;;;;;;0.30;0.30;;;12.70;82.50;;;;;;4975147;28;20450;-66
2024/02/24 12:25:30;;;;;;;0.30;0.30;;;12.70;82.80;;;;;;4976362;28;20863;-66
2024/02/24 12:27:56;;;;;;;0.30;0.30;;;12.70;83.10;;;;;;4977822;28;20438;-66
2024/02/24 12:30:22;;;;;;;0.30;0.30;;;12.60;84.40;;;;;;4975633;28;20382;-68
2024/02/24 12:32:49;;;;;;;0.30;0.30;;;12.50;83.20;;;;;;4975895;28;20582;-66
2024/02/24 12:35:15;;;;;;;0.30;0.30;;;12.50;83.50;;;;;;4958806;28;20506;-66
2024/02/24 12:37:44;;;;;;;0.30;0.30;;;12.40;83.10;;;;;;4975619;28;20898;-67
2024/02/24 12:40:44;;;;;;;0.30;0.30;;;12.40;82.00;;;;;;4975651;28;20710;-67
2024/02/24 12:43:10;;;;;;;0.30;0.30;;;12.40;81.60;;;;;;4957777;28;20431;-66
2024/02/24 12:45:36;;;;;;;0.30;0.30;;;12.20;80.80;;;;;;4974735;28;20768;-66
2024/02/24 12:48:01;;;;;;;0.30;0.30;;;12.10;81.20;;;;;;4974877;28;20407;-66
2024/02/24 12:50:28;;;;;;;0.30;0.30;;;12.00;82.90;;;;;;4975264;28;20172;-65
2024/02/24 12:52:54;;;;;;;0.30;0.27;;;12.00;82.40;;;;;;4975429;28;20258;-66
2024/02/24 12:55:19;;;;;;;0.30;0.30;;;12.00;82.70;;;;;;4975329;28;20429;-64
2024/02/24 12:57:45;;;;;;;0.30;0.30;;;12.00;82.50;;;;;;4958978;28;20180;-66
2024/02/24 13:00:13;;;;;;;0.30;0.30;;;12.00;82.10;;;;;;4976559;28;20556;-67
2024/02/24 13:02:39;;;;;;;0.30;0.20;;;12.10;82.10;;;;;;4974911;28;20498;-66
2024/02/24 13:05:06;;;;;;;0.30;0.30;;;12.00;82.80;;;;;;4974030;28;20427;-66
2024/02/24 13:07:33;;;;;;;0.30;0.30;;;12.10;83.80;;;;;;4974412;28;20406;-66
2024/02/24 13:09:59;;;;;;;0.30;0.30;;;12.10;84.00;;;;;;4974457;28;20434;-66
2024/02/24 13:12:24;;;;;;;0.30;0.23;;;12.20;82.10;;;;;;4974632;28;20776;-66
2024/02/24 13:14:50;;;;;;;0.30;0.20;;;12.20;80.80;;;;;;4956748;28;20428;-65
2024/02/24 13:17:16;;;;;;;0.30;0.20;;;12.20;79.20;;;;;;4974283;28;20334;-65
2024/02/24 13:19:42;;;;;;;0.30;0.20;;;12.30;78.20;;;;;;4957125;28;20183;-66
2024/02/24 13:22:08;;;;;;;0.30;0.30;;;12.30;78.50;;;;;;4957014;28;20423;-66
2024/02/24 13:24:34;;;;;;;0.30;0.30;;;12.30;81.30;;;;;;4974053;28;20274;-66
2024/02/24 13:27:00;;;;;;;0.30;0.30;;;12.40;80.10;;;;;;4974158;28;20488;-66
2024/02/24 13:29:25;;;;;;;0.30;0.20;;;12.40;80.80;;;;;;4957072;28;20599;-68
2024/02/24 13:31:51;;;;;;;0.30;0.30;;;12.50;78.80;;;;;;4974215;28;20407;-65
2024/02/24 13:34:16;;;;;;;0.30;0.30;;;12.60;79.70;;;;;;4974354;28;20508;-66
2024/02/24 13:36:42;;;;;;;0.30;0.20;;;12.60;81.20;;;;;;4973999;28;20196;-66
2024/02/24 13:39:08;;;;;;;0.30;0.30;;;12.60;81.60;;;;;;4974270;28;20187;-66
2024/02/24 13:41:34;;;;;;;0.33;0.33;;;12.60;81.30;;;;;;4974134;28;20805;-65
2024/02/24 13:44:00;;;;;;;0.30;0.30;;;12.40;80.00;;;;;;4956681;28;20456;-67
2024/02/24 13:46:25;;;;;;;0.30;0.20;;;12.20;79.00;;;;;;4973582;28;20223;-66
2024/02/24 13:49:01;;;;;;;0.30;0.30;;;12.10;80.30;;;;;;4973796;28;20200;-66
2024/02/24 13:51:27;;;;;;;0.30;0.30;;;12.10;81.50;;;;;;4973993;28;20175;-67
2024/02/24 13:53:53;;;;;;;0.30;0.30;;;12.10;81.70;;;;;;4974048;28;20478;-66
2024/02/24 13:56:18;;;;;;;0.30;0.30;;;12.10;81.80;;;;;;4973579;28;20278;-66
2024/02/24 13:58:44;;;;;;;0.40;0.40;;;12.20;81.20;;;;;;4974248;28;20684;-66
2024/02/24 14:01:10;;;;;;;0.30;0.30;;;12.20;79.90;;;;;;4973805;28;20263;-66
2024/02/24 14:03:35;;;;;;;0.30;0.30;;;12.10;78.90;;;;;;4959235;28;20633;-65
2024/02/24 14:06:02;;;;;;;0.30;0.30;;;12.10;80.50;;;;;;4977132;28;20203;-67
2024/02/24 14:08:28;;;;;;;0.30;0.30;;;12.00;79.60;;;;;;4977744;28;20206;-66
2024/02/24 14:10:54;;;;;;;0.30;0.20;;;12.00;80.50;;;;;;4977425;28;20415;-65
2024/02/24 14:13:20;;;;;;;0.30;0.30;;;11.90;81.40;;;;;;4977441;28;20180;-65
2024/02/24 14:15:49;;;;;;;0.30;0.30;;;11.80;82.20;;;;;;4977051;28;20824;-66
2024/02/24 14:18:14;;;;;;;0.30;0.30;;;11.90;82.40;;;;;;4959967;28;20180;-67
2024/02/24 14:20:40;;;;;;;0.30;0.30;;;11.80;81.60;;;;;;4977306;28;20414;-65
2024/02/24 14:23:06;;;;;;;0.30;0.30;;;11.80;82.80;;;;;;4977428;28;20208;-66
2024/02/24 14:25:32;;;;;;;0.30;0.30;;;11.80;82.90;;;;;;4976978;28;20188;-68
2024/02/24 14:27:58;;;;;;;0.30;0.30;;;11.80;83.10;;;;;;4977683;28;20755;-66
2024/02/24 14:30:23;;;;;;;0.30;0.20;;;11.70;82.00;;;;;;4977237;28;20501;-65
2024/02/24 14:32:49;;;;;;;0.30;0.30;;;11.60;80.60;;;;;;4977083;28;20179;-66
2024/02/24 14:35:19;;;;;;;0.30;0.30;;;11.50;81.60;;;;;;4976749;28;20203;-67
2024/02/24 14:37:44;;;;;;;0.50;0.50;;;11.40;81.80;;;;;;4977120;28;20193;-65
2024/02/24 14:40:11;;;;;;;0.30;0.30;;;11.30;81.30;;;;;;4977144;28;20414;-65
2024/02/24 14:42:36;;;;;;;0.30;0.30;;;11.20;80.90;;;;;;4977084;28;20720;-66
2024/02/24 14:45:03;;;;;;;0.30;0.30;;;11.10;80.90;;;;;;4977296;28;20445;-65
2024/02/24 14:47:29;;;;;;;0.40;0.40;;;11.00;81.50;;;;;;4943530;28;20218;-66
2024/02/24 14:49:55;;;;;;;0.30;0.30;;;11.00;81.10;;;;;;4977017;28;20428;-65
2024/02/24 14:52:24;;;;;;;0.30;0.30;;;10.90;81.20;;;;;;4976999;28;20893;-66
2024/02/24 14:54:50;;;;;;;0.30;0.30;;;10.90;81.80;;;;;;4976539;28;20221;-66
2024/02/24 14:57:16;;;;;;;0.40;0.40;;;10.80;81.60;;;;;;4976316;28;20438;-68
2024/02/24 14:59:42;;;;;;;0.30;0.30;;;10.80;81.90;;;;;;4976561;28;20385;-66
2024/02/24 15:02:08;;;;;;;0.30;0.30;;;10.80;82.00;;;;;;4976209;28;20212;-66
2024/02/24 15:04:34;;;;;;;0.30;0.20;;;10.70;81.60;;;;;;4976217;28;20516;-68
2024/02/24 15:07:00;;;;;;;0.30;0.30;;;10.70;82.10;;;;;;4976238;28;20486;-68
2024/02/24 15:09:27;;;;;;;0.30;0.30;;;10.80;82.90;;;;;;4976109;28;20255;-67
2024/02/24 15:11:52;;;;;;;0.30;0.30;;;10.80;82.90;;;;;;4976329;28;20502;-65
2024/02/24 15:14:18;;;;;;;0.30;0.20;;;10.70;81.10;;;;;;4974505;28;20500;-69
2024/02/24 15:16:53;;;;;;;0.30;0.30;;;10.60;79.90;;;;;;4975923;28;20469;-67
2024/02/24 15:19:20;;;;;;;0.30;0.30;;;10.50;79.90;;;;;;4976387;28;20224;-67
2024/02/24 15:21:46;;;;;;;0.30;0.30;;;10.50;80.30;;;;;;4975849;28;20421;-68
2024/02/24 15:24:14;;;;;;;0.30;0.30;;;10.50;79.20;;;;;;4976160;28;20847;-68
2024/02/24 15:26:43;;;;;;;0.30;0.30;;;10.40;78.90;;;;;;4975876;28;20513;-65
2024/02/24 15:29:08;;;;;;;0.30;0.30;;;10.40;79.20;;;;;;4975443;28;20484;-66
2024/02/24 15:31:35;;;;;;;0.30;0.30;;;10.40;79.60;;;;;;4964128;28;20419;-66
2024/02/24 15:34:01;;;;;;;0.40;0.40;;;10.40;80.90;;;;;;4970839;28;20198;-68
2024/02/24 15:36:27;;;;;;;0.30;0.30;;;10.40;80.70;;;;;;4975443;28;20932;-64
2024/02/24 15:38:53;;;;;;;0.30;0.20;;;10.40;80.00;;;;;;4968981;28;20190;-67
2024/02/24 15:41:25;;;;;;;0.30;0.30;;;10.40;79.80;;;;;;4969564;28;20749;-66
2024/02/24 15:43:51;;;;;;;0.30;0.30;;;10.40;80.30;;;;;;4964999;28;20183;-63
2024/02/24 15:46:17;;;;;;;0.30;0.30;;;10.40;80.80;;;;;;4966046;28;20429;-70
2024/02/24 15:48:44;;;;;;;0.30;0.30;;;10.50;81.60;;;;;;4964876;28;20977;-66
2024/02/24 15:51:10;;;;;;;0.35;0.35;;;10.50;80.50;;;;;;4964946;28;20414;-64
2024/02/24 15:53:37;;;;;;;0.30;0.20;;;10.50;80.80;;;;;;4966561;28;20260;-64
2024/02/24 15:56:06;;;;;;;0.30;0.30;;;10.60;81.00;;;;;;4975158;28;20442;-64
2024/02/24 15:58:33;;;;;;;0.40;0.37;;;10.70;80.70;;;;;;4975055;28;20412;-65
2024/02/24 16:00:59;;;;;;;0.30;0.30;;;10.70;80.00;;;;;;4971637;28;20426;-65
2024/02/24 16:03:24;;;;;;;0.30;0.30;;;10.70;79.80;;;;;;4964292;28;20399;-65
2024/02/24 16:05:50;;;;;;;0.30;0.30;;;10.70;80.30;;;;;;4965074;28;20288;-65
2024/02/24 16:08:18;;;;;;;0.30;0.30;;;10.70;80.30;;;;;;4963780;28;20448;-63
2024/02/24 16:10:47;;;;;;;0.40;0.40;;;10.70;80.10;;;;;;4947832;28;20418;-65
2024/02/24 16:13:13;;;;;;;0.30;0.30;;;10.70;80.30;;;;;;4964711;28;20481;-64
2024/02/24 16:15:40;;;;;;;0.30;0.30;;;10.60;80.70;;;;;;4961856;28;20401;-65
2024/02/24 16:18:07;;;;;;;0.30;0.30;;;10.60;81.40;;;;;;4963433;28;20422;-65
2024/02/24 16:20:33;;;;;;;0.30;0.30;;;10.50;81.60;;;;;;4963931;28;20419;-72
2024/02/24 16:22:59;;;;;;;0.30;0.30;;;10.50;81.60;;;;;;4975006;28;20413;-64
2024/02/24 16:25:25;;;;;;;0.30;0.30;;;10.50;82.10;;;;;;4973967;28;20529;-69
2024/02/24 16:27:51;;;;;;;0.30;0.30;;;10.50;88.10;;;;;;4965285;28;20459;-64
2024/02/24 16:30:17;;;;;;;0.30;0.30;;;10.20;91.40;;;;;;4963335;28;20213;-66
2024/02/24 16:32:43;;;;;;;0.30;0.30;;;9.80;93.00;;;;;;4964143;28;20729;-70
2024/02/24 16:35:09;;;;;;;0.60;0.60;;;9.50;93.80;;;;;;4965388;28;20457;-69
2024/02/24 16:37:34;;;;;;;0.30;0.27;;;9.20;94.70;;;;;;4943474;28;20656;-65
2024/02/24 16:40:00;;;;;;;0.40;0.40;;;9.00;95.50;;;;;;4965899;28;20181;-62
2024/02/24 16:42:25;;;;;;;0.40;0.40;;;8.70;96.30;;;;;;4963814;28;20188;-68
2024/02/24 16:44:51;;;;;;;0.30;0.30;;;8.50;97.00;;;;;;4956653;28;20177;-65
2024/02/24 16:47:17;;;;;;;0.30;0.30;;;8.30;98.00;;;;;;4956123;28;20315;-64
2024/02/24 16:49:42;;;;;;;0.40;0.40;;;8.20;98.60;;;;;;4965351;28;20760;-66
2024/02/24 16:52:08;;;;;;;0.30;0.30;;;8.00;99.40;;;;;;4957780;28;20180;-65
2024/02/24 16:54:33;;;;;;;0.30;0.30;;;7.90;99.90;;;;;;4955462;29;20188;-66
2024/02/24 16:56:59;;;;;;;0.30;0.30;;;7.80;99.90;;;;;;4959172;28;20279;-76
2024/02/24 16:59:25;;;;;;;0.50;0.50;;;7.60;99.90;;;;;;4956896;28;20237;-68
2024/02/24 17:01:51;;;;;;;0.30;0.30;;;7.40;99.90;;;;;;4938033;29;20263;-64
2024/02/24 17:04:17;;;;;;;0.30;0.30;;;7.30;99.90;;;;;;4964023;28;20183;-66
2024/02/24 17:06:43;;;;;;;0.35;0.35;;;7.30;99.90;;;;;;4974090;28;20222;-65
2024/02/24 17:09:09;;;;;;;0.30;0.30;;;7.10;99.90;;;;;;4974322;28;20294;-69
2024/02/24 17:11:35;;;;;;;0.30;0.30;;;7.10;99.90;;;;;;4957062;28;20617;-65
2024/02/24 17:14:01;;;;;;;0.40;0.40;;;7.00;99.90;;;;;;4974373;28;20642;-63
2024/02/24 17:16:27;;;;;;;0.30;0.30;;;6.90;99.90;;;;;;4973804;28;20195;-68
2024/02/24 17:18:52;;;;;;;0.30;0.30;;;6.80;99.90;;;;;;4974293;28;20242;-66
2024/02/24 17:21:18;;;;;;;0.30;0.30;;;6.70;99.90;;;;;;4935236;29;20177;-69
2024/02/24 17:23:44;;;;;;;0.30;0.30;;;6.70;99.90;;;;;;4941349;29;20184;-70
2024/02/24 17:26:15;;;;;;;0.37;0.37;;;6.60;99.90;;;;;;4936535;29;20732;-65
2024/02/24 17:28:40;;;;;;;0.35;0.35;;;6.50;99.90;;;;;;4947644;28;20204;-68
2024/02/24 17:31:06;;;;;;;0.40;0.40;;;6.40;99.90;;;;;;4953771;29;20542;-68
2024/02/24 17:33:32;;;;;;;0.40;0.40;;;6.40;99.90;;;;;;4960804;28;20184;-66
2024/02/24 17:35:57;;;;;;;0.30;0.30;;;6.40;99.90;;;;;;4954081;29;20682;-70
2024/02/24 17:38:25;;;;;;;0.40;0.40;;;6.40;99.90;;;;;;4957479;28;20172;-69
2024/02/24 17:40:51;;;;;;;0.30;0.30;;;6.30;99.90;;;;;;4958565;29;20210;-67
2024/02/24 17:43:16;;;;;;;0.30;0.30;;;6.30;99.90;;;;;;4958633;29;20177;-69
2024/02/24 17:45:42;;;;;;;0.30;0.30;;;6.30;99.90;;;;;;4958085;29;20196;-66
2024/02/24 17:48:08;;;;;;;0.40;0.40;;;6.20;99.90;;;;;;4958216;29;20247;-64
2024/02/24 17:50:33;;;;;;;0.40;0.40;;;6.20;99.90;;;;;;4970041;28;20175;-65
2024/02/24 17:53:00;;;;;;;0.30;0.30;;;6.20;99.90;;;;;;4958113;29;20527;-65